sensor_id;sensor_type;location;lat;lon;timestamp;temperature;humidity
24682;DHT22;12802;53.390;-2.328;2023-05-10T00:01:23;9.80;99.90
24682;DHT22;12802;53.390;-2.328;2023-05-10T00:03:49;9.80;99.90
24682;DHT22;12802;53.390;-2.328;2023-05-10T00:06:15;9.70;99.90
24682;DHT22;12802;53.390;-2.328;2023-05-10T00:08:41;9.60;99.90
24682;DHT22;12802;53.390;-2.328;2023-05-10T00:11:06;9.60;99.90
24682;DHT22;12802;53.390;-2.328;2023-05-10T00:13:32;9.50;99.90
24682;DHT22;12802;53.390;-2.328;2023-05-10T00:15:58;9.50;99.90
24682;DHT22;12802;53.390;-2.328;2023-05-10T00:18:23;9.40;99.90
24682;DHT22;12802;53.390;-2.328;2023-05-10T00:20:49;9.30;99.90
24682;DHT22;12802;53.390;-2.328;2023-05-10T00:23:15;9.30;99.90
24682;DHT22;12802;53.390;-2.328;2023-05-10T00:25:40;9.20;99.90
24682;DHT22;12802;53.390;-2.328;2023-05-10T00:28:06;9.20;99.90
24682;DHT22;12802;53.390;-2.328;2023-05-10T00:30:32;9.20;99.90
24682;DHT22;12802;53.390;-2.328;2023-05-10T00:32:57;9.30;99.90
24682;DHT22;12802;53.390;-2.328;2023-05-10T00:35:23;9.30;99.90
24682;DHT22;12802;53.390;-2.328;2023-05-10T00:37:48;9.30;99.90
24682;DHT22;12802;53.390;-2.328;2023-05-10T00:40:14;9.40;99.90
24682;DHT22;12802;53.390;-2.328;2023-05-10T00:42:43;9.40;99.90
24682;DHT22;12802;53.390;-2.328;2023-05-10T00:45:09;9.20;99.90
24682;DHT22;12802;53.390;-2.328;2023-05-10T00:47:35;9.10;99.90
24682;DHT22;12802;53.390;-2.328;2023-05-10T00:50:01;9.10;99.90
24682;DHT22;12802;53.390;-2.328;2023-05-10T00:52:27;9.10;99.90
24682;DHT22;12802;53.390;-2.328;2023-05-10T00:54:53;9.00;99.90
24682;DHT22;12802;53.390;-2.328;2023-05-10T00:57:19;9.00;99.90
24682;DHT22;12802;53.390;-2.328;2023-05-10T00:59:45;9.00;99.90
24682;DHT22;12802;53.390;-2.328;2023-05-10T01:02:11;9.00;99.90
24682;DHT22;12802;53.390;-2.328;2023-05-10T01:04:37;8.90;99.90
24682;DHT22;12802;53.390;-2.328;2023-05-10T01:07:03;8.90;99.90
24682;DHT22;12802;53.390;-2.328;2023-05-10T01:09:28;8.90;99.90
24682;DHT22;12802;53.390;-2.328;2023-05-10T01:11:54;8.80;99.90
24682;DHT22;12802;53.390;-2.328;2023-05-10T01:14:20;8.80;99.90
24682;DHT22;12802;53.390;-2.328;2023-05-10T01:16:47;8.80;99.90
24682;DHT22;12802;53.390;-2.328;2023-05-10T01:19:17;8.70;99.90
24682;DHT22;12802;53.390;-2.328;2023-05-10T01:35:17;8.70;99.90
24682;DHT22;12802;53.390;-2.328;2023-05-10T01:40:16;8.50;99.90
24682;DHT22;12802;53.390;-2.328;2023-05-10T01:42:46;8.40;99.90
24682;DHT22;12802;53.390;-2.328;2023-05-10T01:45:18;8.40;99.90
24682;DHT22;12802;53.390;-2.328;2023-05-10T01:47:50;8.40;99.90
24682;DHT22;12802;53.390;-2.328;2023-05-10T01:50:19;8.40;99.90
24682;DHT22;12802;53.390;-2.328;2023-05-10T01:52:51;8.30;99.90
24682;DHT22;12802;53.390;-2.328;2023-05-10T01:55:18;8.30;99.90
24682;DHT22;12802;53.390;-2.328;2023-05-10T01:57:46;8.40;99.90
24682;DHT22;12802;53.390;-2.328;2023-05-10T02:00:13;8.30;99.90
24682;DHT22;12802;53.390;-2.328;2023-05-10T02:02:40;8.30;99.90
24682;DHT22;12802;53.390;-2.328;2023-05-10T02:05:07;8.30;99.90
24682;DHT22;12802;53.390;-2.328;2023-05-10T02:07:34;8.30;99.90
24682;DHT22;12802;53.390;-2.328;2023-05-10T02:10:02;8.30;99.90
24682;DHT22;12802;53.390;-2.328;2023-05-10T02:12:28;8.20;99.90
24682;DHT22;12802;53.390;-2.328;2023-05-10T02:14:54;8.20;99.90
24682;DHT22;12802;53.390;-2.328;2023-05-10T02:17:20;8.30;99.90
24682;DHT22;12802;53.390;-2.328;2023-05-10T02:19:46;8.30;99.90
24682;DHT22;12802;53.390;-2.328;2023-05-10T02:22:12;8.30;99.90
24682;DHT22;12802;53.390;-2.328;2023-05-10T02:24:38;8.40;99.90
24682;DHT22;12802;53.390;-2.328;2023-05-10T02:27:05;8.40;99.90
24682;DHT22;12802;53.390;-2.328;2023-05-10T02:29:31;8.40;99.90
24682;DHT22;12802;53.390;-2.328;2023-05-10T02:31:57;8.40;99.90
24682;DHT22;12802;53.390;-2.328;2023-05-10T02:34:26;8.40;99.90
24682;DHT22;12802;53.390;-2.328;2023-05-10T02:36:53;8.30;99.90
24682;DHT22;12802;53.390;-2.328;2023-05-10T02:39:19;8.30;99.90
24682;DHT22;12802;53.390;-2.328;2023-05-10T02:41:46;8.30;99.90
24682;DHT22;12802;53.390;-2.328;2023-05-10T02:44:12;8.40;99.90
24682;DHT22;12802;53.390;-2.328;2023-05-10T02:46:39;8.50;99.90
24682;DHT22;12802;53.390;-2.328;2023-05-10T02:49:05;8.50;99.90
24682;DHT22;12802;53.390;-2.328;2023-05-10T02:51:31;8.50;99.90
24682;DHT22;12802;53.390;-2.328;2023-05-10T02:53:57;8.60;99.90
24682;DHT22;12802;53.390;-2.328;2023-05-10T02:56:25;8.50;99.90
24682;DHT22;12802;53.390;-2.328;2023-05-10T02:58:54;8.50;99.90
24682;DHT22;12802;53.390;-2.328;2023-05-10T03:01:20;8.50;99.90
24682;DHT22;12802;53.390;-2.328;2023-05-10T03:03:45;8.40;99.90
24682;DHT22;12802;53.390;-2.328;2023-05-10T03:06:11;8.40;99.90
24682;DHT22;12802;53.390;-2.328;2023-05-10T03:08:37;8.40;99.90
24682;DHT22;12802;53.390;-2.328;2023-05-10T03:13:52;8.60;99.90
24682;DHT22;12802;53.390;-2.328;2023-05-10T03:16:22;8.70;99.90
24682;DHT22;12802;53.390;-2.328;2023-05-10T03:19:32;8.70;99.90
24682;DHT22;12802;53.390;-2.328;2023-05-10T03:21:39;8.70;99.90
24682;DHT22;12802;53.390;-2.328;2023-05-10T03:24:07;8.70;99.90
24682;DHT22;12802;53.390;-2.328;2023-05-10T03:26:35;8.80;99.90
24682;DHT22;12802;53.390;-2.328;2023-05-10T03:29:08;8.80;99.90
24682;DHT22;12802;53.390;-2.328;2023-05-10T03:31:34;8.90;99.90
24682;DHT22;12802;53.390;-2.328;2023-05-10T03:34:00;8.90;99.90
24682;DHT22;12802;53.390;-2.328;2023-05-10T03:36:26;8.90;99.90
24682;DHT22;12802;53.390;-2.328;2023-05-10T03:38:53;9.00;99.90
24682;DHT22;12802;53.390;-2.328;2023-05-10T03:41:19;9.00;99.90
24682;DHT22;12802;53.390;-2.328;2023-05-10T03:43:46;9.00;99.90
24682;DHT22;12802;53.390;-2.328;2023-05-10T03:46:12;9.00;99.90
24682;DHT22;12802;53.390;-2.328;2023-05-10T03:48:38;9.00;99.90
24682;DHT22;12802;53.390;-2.328;2023-05-10T03:51:03;9.00;99.90
24682;DHT22;12802;53.390;-2.328;2023-05-10T03:53:29;9.00;99.90
24682;DHT22;12802;53.390;-2.328;2023-05-10T03:55:55;9.00;99.90
24682;DHT22;12802;53.390;-2.328;2023-05-10T03:58:20;9.10;99.90
24682;DHT22;12802;53.390;-2.328;2023-05-10T04:00:47;9.20;99.90
24682;DHT22;12802;53.390;-2.328;2023-05-10T04:03:13;9.10;99.90
24682;DHT22;12802;53.390;-2.328;2023-05-10T04:05:39;9.10;99.90
24682;DHT22;12802;53.390;-2.328;2023-05-10T04:08:05;9.00;99.90
24682;DHT22;12802;53.390;-2.328;2023-05-10T04:10:31;9.00;99.90
24682;DHT22;12802;53.390;-2.328;2023-05-10T04:12:57;9.00;99.90
24682;DHT22;12802;53.390;-2.328;2023-05-10T04:15:22;9.00;99.90
24682;DHT22;12802;53.390;-2.328;2023-05-10T04:17:48;9.00;99.90
24682;DHT22;12802;53.390;-2.328;2023-05-10T04:20:14;8.90;99.90
24682;DHT22;12802;53.390;-2.328;2023-05-10T04:22:39;8.90;99.90
24682;DHT22;12802;53.390;-2.328;2023-05-10T04:25:06;8.80;99.90
24682;DHT22;12802;53.390;-2.328;2023-05-10T04:27:32;8.80;99.90
24682;DHT22;12802;53.390;-2.328;2023-05-10T04:29:58;8.90;99.90
24682;DHT22;12802;53.390;-2.328;2023-05-10T04:32:23;9.00;99.90
24682;DHT22;12802;53.390;-2.328;2023-05-10T04:34:49;9.00;99.90
24682;DHT22;12802;53.390;-2.328;2023-05-10T04:37:16;8.90;99.90
24682;DHT22;12802;53.390;-2.328;2023-05-10T04:39:42;8.90;99.90
24682;DHT22;12802;53.390;-2.328;2023-05-10T04:42:08;8.80;99.90
24682;DHT22;12802;53.390;-2.328;2023-05-10T04:44:33;8.90;99.90
24682;DHT22;12802;53.390;-2.328;2023-05-10T04:46:59;8.90;99.90
24682;DHT22;12802;53.390;-2.328;2023-05-10T04:49:24;8.90;99.90
24682;DHT22;12802;53.390;-2.328;2023-05-10T04:51:50;9.00;99.90
24682;DHT22;12802;53.390;-2.328;2023-05-10T04:54:16;8.90;99.90
24682;DHT22;12802;53.390;-2.328;2023-05-10T04:56:41;8.90;99.90
24682;DHT22;12802;53.390;-2.328;2023-05-10T04:59:07;8.90;99.90
24682;DHT22;12802;53.390;-2.328;2023-05-10T05:01:33;8.90;99.90
24682;DHT22;12802;53.390;-2.328;2023-05-10T05:03:58;8.90;99.90
24682;DHT22;12802;53.390;-2.328;2023-05-10T05:06:24;8.90;99.90
24682;DHT22;12802;53.390;-2.328;2023-05-10T05:08:50;8.90;99.90
24682;DHT22;12802;53.390;-2.328;2023-05-10T05:11:18;8.90;99.90
24682;DHT22;12802;53.390;-2.328;2023-05-10T05:13:44;8.90;99.90
24682;DHT22;12802;53.390;-2.328;2023-05-10T05:16:10;8.90;99.90
24682;DHT22;12802;53.390;-2.328;2023-05-10T05:18:36;8.90;99.90
24682;DHT22;12802;53.390;-2.328;2023-05-10T05:21:02;8.90;99.90
24682;DHT22;12802;53.390;-2.328;2023-05-10T05:23:28;8.90;99.90
24682;DHT22;12802;53.390;-2.328;2023-05-10T05:25:53;8.90;99.90
24682;DHT22;12802;53.390;-2.328;2023-05-10T05:28:19;8.80;99.90
24682;DHT22;12802;53.390;-2.328;2023-05-10T05:30:45;8.90;99.90
24682;DHT22;12802;53.390;-2.328;2023-05-10T05:33:12;8.90;99.90
24682;DHT22;12802;53.390;-2.328;2023-05-10T05:35:38;9.00;99.90
24682;DHT22;12802;53.390;-2.328;2023-05-10T05:38:03;9.10;99.90
24682;DHT22;12802;53.390;-2.328;2023-05-10T05:40:29;9.20;99.90
24682;DHT22;12802;53.390;-2.328;2023-05-10T05:42:55;9.30;99.90
24682;DHT22;12802;53.390;-2.328;2023-05-10T05:45:20;9.30;99.90
24682;DHT22;12802;53.390;-2.328;2023-05-10T05:47:46;9.30;99.90
24682;DHT22;12802;53.390;-2.328;2023-05-10T05:50:12;9.30;99.90
24682;DHT22;12802;53.390;-2.328;2023-05-10T05:52:38;9.40;99.90
24682;DHT22;12802;53.390;-2.328;2023-05-10T05:55:03;9.40;99.90
24682;DHT22;12802;53.390;-2.328;2023-05-10T05:57:29;9.40;99.90
24682;DHT22;12802;53.390;-2.328;2023-05-10T05:59:55;9.60;99.90
24682;DHT22;12802;53.390;-2.328;2023-05-10T06:02:21;9.80;99.90
24682;DHT22;12802;53.390;-2.328;2023-05-10T06:04:46;10.00;99.90
24682;DHT22;12802;53.390;-2.328;2023-05-10T06:07:12;10.00;99.90
24682;DHT22;12802;53.390;-2.328;2023-05-10T06:09:38;10.20;99.90
24682;DHT22;12802;53.390;-2.328;2023-05-10T06:12:03;10.30;99.90
24682;DHT22;12802;53.390;-2.328;2023-05-10T06:14:29;10.40;99.90
24682;DHT22;12802;53.390;-2.328;2023-05-10T06:16:55;10.40;99.90
24682;DHT22;12802;53.390;-2.328;2023-05-10T06:19:20;10.50;99.90
24682;DHT22;12802;53.390;-2.328;2023-05-10T06:21:46;10.50;99.90
24682;DHT22;12802;53.390;-2.328;2023-05-10T06:24:11;10.40;99.90
24682;DHT22;12802;53.390;-2.328;2023-05-10T06:26:37;10.40;99.90
24682;DHT22;12802;53.390;-2.328;2023-05-10T06:29:03;10.40;99.90
24682;DHT22;12802;53.390;-2.328;2023-05-10T06:31:28;10.40;99.90
24682;DHT22;12802;53.390;-2.328;2023-05-10T06:33:54;10.40;99.90
24682;DHT22;12802;53.390;-2.328;2023-05-10T06:36:20;10.40;99.90
24682;DHT22;12802;53.390;-2.328;2023-05-10T06:38:45;10.50;99.90
24682;DHT22;12802;53.390;-2.328;2023-05-10T06:41:11;10.60;99.90
24682;DHT22;12802;53.390;-2.328;2023-05-10T06:43:37;10.80;99.90
24682;DHT22;12802;53.390;-2.328;2023-05-10T06:46:05;10.80;99.90
24682;DHT22;12802;53.390;-2.328;2023-05-10T06:48:30;10.90;99.90
24682;DHT22;12802;53.390;-2.328;2023-05-10T06:50:56;10.90;99.90
24682;DHT22;12802;53.390;-2.328;2023-05-10T06:53:24;11.00;99.90
24682;DHT22;12802;53.390;-2.328;2023-05-10T06:55:53;11.10;99.90
24682;DHT22;12802;53.390;-2.328;2023-05-10T06:58:19;11.10;99.90
24682;DHT22;12802;53.390;-2.328;2023-05-10T07:00:44;11.20;99.90
24682;DHT22;12802;53.390;-2.328;2023-05-10T07:03:12;11.30;99.90
24682;DHT22;12802;53.390;-2.328;2023-05-10T07:05:37;11.40;99.90
24682;DHT22;12802;53.390;-2.328;2023-05-10T07:08:03;11.50;99.90
24682;DHT22;12802;53.390;-2.328;2023-05-10T07:10:28;11.70;99.90
24682;DHT22;12802;53.390;-2.328;2023-05-10T07:12:55;11.90;99.90
24682;DHT22;12802;53.390;-2.328;2023-05-10T07:15:20;12.00;99.90
24682;DHT22;12802;53.390;-2.328;2023-05-10T07:17:46;12.10;99.90
24682;DHT22;12802;53.390;-2.328;2023-05-10T07:20:12;12.20;99.90
24682;DHT22;12802;53.390;-2.328;2023-05-10T07:22:37;12.30;99.90
24682;DHT22;12802;53.390;-2.328;2023-05-10T07:25:03;12.40;99.90
24682;DHT22;12802;53.390;-2.328;2023-05-10T07:27:29;12.50;99.90
24682;DHT22;12802;53.390;-2.328;2023-05-10T07:29:55;12.50;99.90
24682;DHT22;12802;53.390;-2.328;2023-05-10T07:32:21;12.60;99.90
24682;DHT22;12802;53.390;-2.328;2023-05-10T07:34:47;12.60;99.90
24682;DHT22;12802;53.390;-2.328;2023-05-10T07:37:13;12.60;99.90
24682;DHT22;12802;53.390;-2.328;2023-05-10T07:39:38;12.70;99.90
24682;DHT22;12802;53.390;-2.328;2023-05-10T07:42:04;12.70;99.90
24682;DHT22;12802;53.390;-2.328;2023-05-10T07:44:29;12.80;99.90
24682;DHT22;12802;53.390;-2.328;2023-05-10T07:46:55;12.80;99.90
24682;DHT22;12802;53.390;-2.328;2023-05-10T07:49:21;12.80;99.90
24682;DHT22;12802;53.390;-2.328;2023-05-10T07:51:47;12.80;99.90
24682;DHT22;12802;53.390;-2.328;2023-05-10T07:54:13;12.80;99.90
24682;DHT22;12802;53.390;-2.328;2023-05-10T07:56:39;12.80;99.90
24682;DHT22;12802;53.390;-2.328;2023-05-10T07:59:07;12.90;99.90
24682;DHT22;12802;53.390;-2.328;2023-05-10T08:01:33;13.00;99.90
24682;DHT22;12802;53.390;-2.328;2023-05-10T08:03:59;13.10;99.90
24682;DHT22;12802;53.390;-2.328;2023-05-10T08:06:25;13.10;99.90
24682;DHT22;12802;53.390;-2.328;2023-05-10T08:08:52;13.20;99.90
24682;DHT22;12802;53.390;-2.328;2023-05-10T08:11:19;13.20;99.90
24682;DHT22;12802;53.390;-2.328;2023-05-10T08:13:46;13.20;99.90
24682;DHT22;12802;53.390;-2.328;2023-05-10T08:16:11;13.30;99.90
24682;DHT22;12802;53.390;-2.328;2023-05-10T08:18:37;13.30;99.90
24682;DHT22;12802;53.390;-2.328;2023-05-10T08:21:03;13.40;99.90
24682;DHT22;12802;53.390;-2.328;2023-05-10T08:23:29;13.40;99.90
24682;DHT22;12802;53.390;-2.328;2023-05-10T08:25:55;13.40;99.90
24682;DHT22;12802;53.390;-2.328;2023-05-10T08:28:20;13.50;99.90
24682;DHT22;12802;53.390;-2.328;2023-05-10T08:30:46;13.50;99.90
24682;DHT22;12802;53.390;-2.328;2023-05-10T08:33:12;13.60;99.90
24682;DHT22;12802;53.390;-2.328;2023-05-10T08:35:37;13.70;99.90
24682;DHT22;12802;53.390;-2.328;2023-05-10T08:38:03;13.70;99.90
24682;DHT22;12802;53.390;-2.328;2023-05-10T08:40:28;13.80;99.90
24682;DHT22;12802;53.390;-2.328;2023-05-10T08:43:08;13.90;99.90
24682;DHT22;12802;53.390;-2.328;2023-05-10T08:45:38;13.90;99.90
24682;DHT22;12802;53.390;-2.328;2023-05-10T08:48:10;14.00;99.90
24682;DHT22;12802;53.390;-2.328;2023-05-10T08:50:36;13.90;99.90
24682;DHT22;12802;53.390;-2.328;2023-05-10T08:53:03;13.90;99.90
24682;DHT22;12802;53.390;-2.328;2023-05-10T08:55:29;14.00;99.90
24682;DHT22;12802;53.390;-2.328;2023-05-10T08:57:55;13.90;99.90
24682;DHT22;12802;53.390;-2.328;2023-05-10T09:00:21;13.90;99.90
24682;DHT22;12802;53.390;-2.328;2023-05-10T09:02:49;13.90;99.90
24682;DHT22;12802;53.390;-2.328;2023-05-10T09:05:14;14.00;99.90
24682;DHT22;12802;53.390;-2.328;2023-05-10T09:07:41;14.10;99.90
24682;DHT22;12802;53.390;-2.328;2023-05-10T09:10:07;14.20;99.90
24682;DHT22;12802;53.390;-2.328;2023-05-10T09:12:34;14.20;99.90
24682;DHT22;12802;53.390;-2.328;2023-05-10T09:15:00;14.50;99.90
24682;DHT22;12802;53.390;-2.328;2023-05-10T09:17:25;14.60;99.90
24682;DHT22;12802;53.390;-2.328;2023-05-10T09:20:02;14.60;99.90
24682;DHT22;12802;53.390;-2.328;2023-05-10T09:22:32;14.70;99.90
24682;DHT22;12802;53.390;-2.328;2023-05-10T09:27:29;14.60;99.90
24682;DHT22;12802;53.390;-2.328;2023-05-10T09:29:55;14.50;99.90
24682;DHT22;12802;53.390;-2.328;2023-05-10T09:32:21;14.40;99.90
24682;DHT22;12802;53.390;-2.328;2023-05-10T09:34:46;14.50;99.90
24682;DHT22;12802;53.390;-2.328;2023-05-10T09:37:14;14.50;99.90
24682;DHT22;12802;53.390;-2.328;2023-05-10T09:39:40;14.70;99.90
24682;DHT22;12802;53.390;-2.328;2023-05-10T09:42:07;15.00;99.90
24682;DHT22;12802;53.390;-2.328;2023-05-10T09:44:34;15.20;99.90
24682;DHT22;12802;53.390;-2.328;2023-05-10T09:47:03;15.30;99.90
24682;DHT22;12802;53.390;-2.328;2023-05-10T09:49:29;15.40;99.90
24682;DHT22;12802;53.390;-2.328;2023-05-10T09:52:04;15.60;99.90
24682;DHT22;12802;53.390;-2.328;2023-05-10T09:54:29;15.70;99.90
24682;DHT22;12802;53.390;-2.328;2023-05-10T09:56:55;15.50;99.90
24682;DHT22;12802;53.390;-2.328;2023-05-10T09:59:21;15.40;99.90
24682;DHT22;12802;53.390;-2.328;2023-05-10T10:01:50;15.20;99.90
24682;DHT22;12802;53.390;-2.328;2023-05-10T10:04:16;15.10;99.90
24682;DHT22;12802;53.390;-2.328;2023-05-10T10:06:42;15.00;99.90
24682;DHT22;12802;53.390;-2.328;2023-05-10T10:09:08;15.00;99.90
24682;DHT22;12802;53.390;-2.328;2023-05-10T10:11:34;15.00;99.90
24682;DHT22;12802;53.390;-2.328;2023-05-10T10:14:00;14.90;99.90
24682;DHT22;12802;53.390;-2.328;2023-05-10T10:16:26;14.70;99.90
24682;DHT22;12802;53.390;-2.328;2023-05-10T10:18:52;14.70;99.90
24682;DHT22;12802;53.390;-2.328;2023-05-10T10:21:18;14.60;99.90
24682;DHT22;12802;53.390;-2.328;2023-05-10T10:23:44;14.50;99.90
24682;DHT22;12802;53.390;-2.328;2023-05-10T10:26:11;14.40;99.90
24682;DHT22;12802;53.390;-2.328;2023-05-10T10:31:39;14.10;99.90
24682;DHT22;12802;53.390;-2.328;2023-05-10T10:34:06;14.00;99.90
24682;DHT22;12802;53.390;-2.328;2023-05-10T10:36:45;13.90;99.90
24682;DHT22;12802;53.390;-2.328;2023-05-10T10:39:11;13.80;99.90
24682;DHT22;12802;53.390;-2.328;2023-05-10T10:41:39;13.70;99.90
24682;DHT22;12802;53.390;-2.328;2023-05-10T10:44:24;13.70;99.90
24682;DHT22;12802;53.390;-2.328;2023-05-10T10:49:37;13.70;99.90
24682;DHT22;12802;53.390;-2.328;2023-05-10T10:52:22;13.70;99.90
24682;DHT22;12802;53.390;-2.328;2023-05-10T10:55:30;13.70;99.90
24682;DHT22;12802;53.390;-2.328;2023-05-10T11:00:19;13.80;99.90
24682;DHT22;12802;53.390;-2.328;2023-05-10T11:02:46;13.60;99.90
24682;DHT22;12802;53.390;-2.328;2023-05-10T11:08:41;13.40;99.90
24682;DHT22;12802;53.390;-2.328;2023-05-10T11:16:09;13.60;99.90
24682;DHT22;12802;53.390;-2.328;2023-05-10T11:18:36;13.80;99.90
24682;DHT22;12802;53.390;-2.328;2023-05-10T11:21:02;13.80;99.90
24682;DHT22;12802;53.390;-2.328;2023-05-10T11:26:07;13.80;99.90
24682;DHT22;12802;53.390;-2.328;2023-05-10T11:28:34;14.00;99.90
24682;DHT22;12802;53.390;-2.328;2023-05-10T11:31:00;14.10;99.90
24682;DHT22;12802;53.390;-2.328;2023-05-10T11:33:26;14.20;99.90
24682;DHT22;12802;53.390;-2.328;2023-05-10T11:35:51;13.90;99.90
24682;DHT22;12802;53.390;-2.328;2023-05-10T11:38:17;13.80;99.90
24682;DHT22;12802;53.390;-2.328;2023-05-10T11:40:43;13.60;99.90
24682;DHT22;12802;53.390;-2.328;2023-05-10T11:43:09;13.40;99.90
24682;DHT22;12802;53.390;-2.328;2023-05-10T11:45:35;13.20;99.90
24682;DHT22;12802;53.390;-2.328;2023-05-10T11:48:02;13.10;99.90
24682;DHT22;12802;53.390;-2.328;2023-05-10T11:50:27;13.00;99.90
24682;DHT22;12802;53.390;-2.328;2023-05-10T11:52:53;13.00;99.90
24682;DHT22;12802;53.390;-2.328;2023-05-10T11:55:19;12.90;99.90
24682;DHT22;12802;53.390;-2.328;2023-05-10T11:57:45;12.90;99.90
24682;DHT22;12802;53.390;-2.328;2023-05-10T12:00:12;12.90;99.90
24682;DHT22;12802;53.390;-2.328;2023-05-10T12:02:37;12.90;99.90
24682;DHT22;12802;53.390;-2.328;2023-05-10T12:05:03;13.10;99.90
24682;DHT22;12802;53.390;-2.328;2023-05-10T12:07:30;13.20;99.90
24682;DHT22;12802;53.390;-2.328;2023-05-10T12:10:06;13.20;99.90
24682;DHT22;12802;53.390;-2.328;2023-05-10T12:12:35;13.20;99.90
24682;DHT22;12802;53.390;-2.328;2023-05-10T12:15:01;13.00;99.90
24682;DHT22;12802;53.390;-2.328;2023-05-10T12:17:29;13.20;99.90
24682;DHT22;12802;53.390;-2.328;2023-05-10T12:19:58;13.50;99.90
24682;DHT22;12802;53.390;-2.328;2023-05-10T12:22:24;14.00;99.90
24682;DHT22;12802;53.390;-2.328;2023-05-10T12:24:50;14.20;99.90
24682;DHT22;12802;53.390;-2.328;2023-05-10T12:27:15;14.50;99.90
24682;DHT22;12802;53.390;-2.328;2023-05-10T12:29:41;15.00;99.90
24682;DHT22;12802;53.390;-2.328;2023-05-10T12:32:09;15.00;99.90
24682;DHT22;12802;53.390;-2.328;2023-05-10T12:34:35;14.90;99.90
24682;DHT22;12802;53.390;-2.328;2023-05-10T12:37:04;14.70;99.90
24682;DHT22;12802;53.390;-2.328;2023-05-10T12:39:39;14.50;99.90
24682;DHT22;12802;53.390;-2.328;2023-05-10T12:42:05;14.50;99.90
24682;DHT22;12802;53.390;-2.328;2023-05-10T12:44:31;14.40;99.90
24682;DHT22;12802;53.390;-2.328;2023-05-10T12:46:57;14.20;99.90
24682;DHT22;12802;53.390;-2.328;2023-05-10T12:49:22;14.10;99.90
24682;DHT22;12802;53.390;-2.328;2023-05-10T12:51:48;13.90;99.90
24682;DHT22;12802;53.390;-2.328;2023-05-10T12:54:13;13.80;99.90
24682;DHT22;12802;53.390;-2.328;2023-05-10T12:56:39;13.70;99.90
24682;DHT22;12802;53.390;-2.328;2023-05-10T12:59:06;13.80;99.90
24682;DHT22;12802;53.390;-2.328;2023-05-10T13:01:31;13.70;99.90
24682;DHT22;12802;53.390;-2.328;2023-05-10T13:03:57;13.80;99.90
24682;DHT22;12802;53.390;-2.328;2023-05-10T13:06:23;13.70;99.90
24682;DHT22;12802;53.390;-2.328;2023-05-10T13:08:48;13.70;99.90
24682;DHT22;12802;53.390;-2.328;2023-05-10T13:11:14;13.70;99.90
24682;DHT22;12802;53.390;-2.328;2023-05-10T13:13:42;13.70;99.90
24682;DHT22;12802;53.390;-2.328;2023-05-10T13:16:07;13.70;99.90
24682;DHT22;12802;53.390;-2.328;2023-05-10T13:18:33;13.80;99.90
24682;DHT22;12802;53.390;-2.328;2023-05-10T13:20:59;13.80;99.90
24682;DHT22;12802;53.390;-2.328;2023-05-10T13:23:24;14.00;99.90
24682;DHT22;12802;53.390;-2.328;2023-05-10T13:25:50;14.10;99.90
24682;DHT22;12802;53.390;-2.328;2023-05-10T13:28:16;14.20;99.90
24682;DHT22;12802;53.390;-2.328;2023-05-10T13:30:41;14.30;99.90
24682;DHT22;12802;53.390;-2.328;2023-05-10T13:33:07;14.20;99.90
24682;DHT22;12802;53.390;-2.328;2023-05-10T13:35:32;14.10;99.90
24682;DHT22;12802;53.390;-2.328;2023-05-10T13:37:58;14.10;99.90
24682;DHT22;12802;53.390;-2.328;2023-05-10T13:40:24;14.00;99.90
24682;DHT22;12802;53.390;-2.328;2023-05-10T13:42:49;14.00;99.90
24682;DHT22;12802;53.390;-2.328;2023-05-10T13:45:15;13.90;99.90
24682;DHT22;12802;53.390;-2.328;2023-05-10T13:47:41;13.90;99.90
24682;DHT22;12802;53.390;-2.328;2023-05-10T13:50:07;13.90;99.90
24682;DHT22;12802;53.390;-2.328;2023-05-10T13:52:32;13.90;99.90
24682;DHT22;12802;53.390;-2.328;2023-05-10T13:54:58;13.80;99.90
24682;DHT22;12802;53.390;-2.328;2023-05-10T13:57:24;13.80;99.90
24682;DHT22;12802;53.390;-2.328;2023-05-10T13:59:49;13.90;99.90
24682;DHT22;12802;53.390;-2.328;2023-05-10T14:02:15;14.00;99.90
24682;DHT22;12802;53.390;-2.328;2023-05-10T14:04:41;14.10;99.90
24682;DHT22;12802;53.390;-2.328;2023-05-10T14:07:06;14.20;99.90
24682;DHT22;12802;53.390;-2.328;2023-05-10T14:09:32;14.20;99.90
24682;DHT22;12802;53.390;-2.328;2023-05-10T14:11:58;14.10;99.90
24682;DHT22;12802;53.390;-2.328;2023-05-10T14:14:24;14.00;99.90
24682;DHT22;12802;53.390;-2.328;2023-05-10T14:16:50;14.00;99.90
24682;DHT22;12802;53.390;-2.328;2023-05-10T14:19:15;13.90;99.90
24682;DHT22;12802;53.390;-2.328;2023-05-10T14:21:41;13.90;99.90
24682;DHT22;12802;53.390;-2.328;2023-05-10T14:24:06;13.80;99.90
24682;DHT22;12802;53.390;-2.328;2023-05-10T14:26:32;13.80;99.90
24682;DHT22;12802;53.390;-2.328;2023-05-10T14:28:59;13.90;99.90
24682;DHT22;12802;53.390;-2.328;2023-05-10T14:31:25;13.90;99.90
24682;DHT22;12802;53.390;-2.328;2023-05-10T14:33:50;13.90;99.90
24682;DHT22;12802;53.390;-2.328;2023-05-10T14:36:17;13.90;99.90
24682;DHT22;12802;53.390;-2.328;2023-05-10T14:38:42;14.00;99.90
24682;DHT22;12802;53.390;-2.328;2023-05-10T14:41:08;14.00;99.90
24682;DHT22;12802;53.390;-2.328;2023-05-10T14:43:33;14.00;99.90
24682;DHT22;12802;53.390;-2.328;2023-05-10T14:45:59;14.20;99.90
24682;DHT22;12802;53.390;-2.328;2023-05-10T14:48:25;14.20;99.90
24682;DHT22;12802;53.390;-2.328;2023-05-10T14:50:50;14.30;99.90
24682;DHT22;12802;53.390;-2.328;2023-05-10T14:53:17;14.40;99.90
24682;DHT22;12802;53.390;-2.328;2023-05-10T14:55:43;14.40;99.90
24682;DHT22;12802;53.390;-2.328;2023-05-10T14:58:09;14.40;99.90
24682;DHT22;12802;53.390;-2.328;2023-05-10T15:00:34;14.20;99.90
24682;DHT22;12802;53.390;-2.328;2023-05-10T15:03:00;14.10;99.90
24682;DHT22;12802;53.390;-2.328;2023-05-10T15:05:26;14.00;99.90
24682;DHT22;12802;53.390;-2.328;2023-05-10T15:07:51;13.90;99.90
24682;DHT22;12802;53.390;-2.328;2023-05-10T15:10:17;13.80;99.90
24682;DHT22;12802;53.390;-2.328;2023-05-10T15:12:43;13.70;99.90
24682;DHT22;12802;53.390;-2.328;2023-05-10T15:15:08;13.70;99.90
24682;DHT22;12802;53.390;-2.328;2023-05-10T15:17:34;13.70;99.90
24682;DHT22;12802;53.390;-2.328;2023-05-10T15:20:00;13.60;99.90
24682;DHT22;12802;53.390;-2.328;2023-05-10T15:22:28;13.60;99.90
24682;DHT22;12802;53.390;-2.328;2023-05-10T15:24:54;13.60;99.90
24682;DHT22;12802;53.390;-2.328;2023-05-10T15:27:19;13.60;99.90
24682;DHT22;12802;53.390;-2.328;2023-05-10T15:29:45;13.60;99.90
24682;DHT22;12802;53.390;-2.328;2023-05-10T15:32:10;13.60;99.90
24682;DHT22;12802;53.390;-2.328;2023-05-10T15:34:36;13.60;99.90
24682;DHT22;12802;53.390;-2.328;2023-05-10T15:37:02;13.60;99.90
24682;DHT22;12802;53.390;-2.328;2023-05-10T15:39:28;13.70;99.90
24682;DHT22;12802;53.390;-2.328;2023-05-10T15:41:53;13.70;99.90
24682;DHT22;12802;53.390;-2.328;2023-05-10T15:44:19;13.70;99.90
24682;DHT22;12802;53.390;-2.328;2023-05-10T15:46:44;13.70;99.90
24682;DHT22;12802;53.390;-2.328;2023-05-10T15:49:10;13.80;99.90
24682;DHT22;12802;53.390;-2.328;2023-05-10T15:51:36;13.80;99.90
24682;DHT22;12802;53.390;-2.328;2023-05-10T15:54:01;13.80;99.90
24682;DHT22;12802;53.390;-2.328;2023-05-10T15:56:27;13.70;99.90
24682;DHT22;12802;53.390;-2.328;2023-05-10T15:58:53;13.60;99.90